Time;durP1;ratioP1;P1;durP2;ratioP2;P2;SDS_P1;SDS_P2;PMS_P1;PMS_P2;Temp;Humidity;BMP_temperature;BMP_pressure;BME280_temperature;BME280_humidity;BME280_pressure;Samples;Min_cycle;Max_cycle;Signal;HPM_P1;HPM_P2
2022/01/26 00:00:55;;;;;;;4.85;3.40;;;16.20;77.70;;;;;;1966765;29;20164;-77
2022/01/26 00:05:53;;;;;;;5.90;4.03;;;16.10;77.60;;;;;;1966648;29;20161;-76
2022/01/26 00:06:52;;;;;;;5.72;3.65;;;16.20;77.80;;;;;;1958700;29;20621;-77
2022/01/26 00:07:51;;;;;;;6.33;3.90;;;16.20;77.70;;;;;;1958577;29;20546;-78
2022/01/26 00:08:50;;;;;;;5.57;4.10;;;16.20;77.80;;;;;;1966284;29;20511;-78
2022/01/26 00:09:48;;;;;;;4.57;3.67;;;16.10;77.60;;;;;;1966941;29;20183;-77
2022/01/26 00:10:47;;;;;;;4.70;3.30;;;16.10;77.60;;;;;;1966847;29;20200;-77
2022/01/26 00:11:45;;;;;;;5.73;3.73;;;16.10;77.70;;;;;;1966731;29;20502;-78
2022/01/26 00:12:44;;;;;;;9.43;4.10;;;16.10;77.70;;;;;;1958479;29;20193;-78
2022/01/26 00:13:43;;;;;;;5.43;3.27;;;16.10;77.60;;;;;;1958523;29;20181;-75
2022/01/26 00:14:43;;;;;;;4.83;3.60;;;16.20;77.60;;;;;;1966215;29;20196;-78
2022/01/26 00:15:41;;;;;;;4.63;3.60;;;16.20;77.70;;;;;;1966623;29;20169;-77
2022/01/26 00:16:42;;;;;;;4.10;3.03;;;16.20;77.60;;;;;;1966581;29;20180;-76
2022/01/26 00:17:41;;;;;;;5.75;3.95;;;16.20;78.30;;;;;;1974012;29;20174;-77
2022/01/26 00:18:39;;;;;;;5.47;3.33;;;16.20;77.80;;;;;;1973607;29;20180;-76
2022/01/26 00:20:00;;;;;;;5.20;3.33;;;16.20;77.90;;;;;;1958770;29;20193;-77
2022/01/26 00:21:07;;;;;;;4.55;3.22;;;16.10;77.60;;;;;;1961094;29;20173;-77
2022/01/26 00:22:06;;;;;;;5.07;3.60;;;16.20;77.70;;;;;;1966915;29;20193;-76
2022/01/26 00:24:22;;;;;;;7.13;3.65;;;16.10;77.80;;;;;;1967490;29;20173;-76
2022/01/26 00:25:38;;;;;;;5.68;3.67;;;16.20;77.90;;;;;;1967306;29;20153;-77
2022/01/26 00:27:23;;;;;;;5.30;3.78;;;16.10;77.80;;;;;;1967072;29;20172;-77
2022/01/26 00:29:17;;;;;;;5.18;3.25;;;16.10;77.60;;;;;;1960324;29;20178;-73
2022/01/26 00:39:27;;;;;;;5.93;3.28;;;16.00;77.60;;;;;;1966484;29;20837;-75
2022/01/26 00:40:39;;;;;;;6.30;3.57;;;16.10;77.90;;;;;;1966393;29;20165;-78
2022/01/26 00:41:40;;;;;;;6.03;3.53;;;16.10;77.90;;;;;;1966741;29;20760;-77
2022/01/26 00:42:41;;;;;;;4.90;3.63;;;16.10;77.70;;;;;;1968848;29;20168;-74
2022/01/26 00:43:49;;;;;;;5.50;3.67;;;16.10;77.80;;;;;;1973530;29;20607;-77
2022/01/26 00:44:49;;;;;;;5.20;3.60;;;16.10;77.60;;;;;;1972977;29;20160;-75
2022/01/26 00:45:54;;;;;;;5.53;3.63;;;16.10;77.70;;;;;;1966527;29;20527;-76
2022/01/26 00:46:53;;;;;;;4.03;2.97;;;16.10;77.80;;;;;;1965831;29;20181;-77
2022/01/26 00:47:52;;;;;;;5.23;3.70;;;16.10;77.70;;;;;;1973463;29;20180;-78
2022/01/26 00:48:51;;;;;;;6.23;3.33;;;16.10;77.60;;;;;;1973595;29;20196;-76
2022/01/26 00:49:52;;;;;;;7.35;3.28;;;16.00;77.70;;;;;;1966778;29;20201;-75
2022/01/26 00:50:52;;;;;;;5.68;3.75;;;16.10;77.70;;;;;;1966852;29;20197;-77
2022/01/26 00:51:52;;;;;;;4.22;3.60;;;16.10;77.80;;;;;;1966322;29;20539;-76
2022/01/26 00:52:54;;;;;;;5.53;3.65;;;16.00;77.70;;;;;;1965410;29;20180;-76
2022/01/26 00:54:10;;;;;;;5.53;3.60;;;16.10;77.70;;;;;;1965628;29;20169;-78
2022/01/26 00:55:15;;;;;;;6.10;3.60;;;16.10;77.60;;;;;;1958223;29;20258;-76
2022/01/26 00:56:14;;;;;;;5.18;3.38;;;16.10;77.60;;;;;;1958491;29;20229;-79
2022/01/26 00:57:14;;;;;;;4.70;3.50;;;16.00;77.70;;;;;;1966185;29;20263;-76
2022/01/26 00:58:13;;;;;;;4.60;3.40;;;16.00;78.30;;;;;;1966259;29;20175;-79
2022/01/26 00:59:12;;;;;;;3.70;3.07;;;16.10;77.80;;;;;;1966230;29;20177;-77
2022/01/26 01:00:17;;;;;;;5.97;3.70;;;16.10;77.70;;;;;;1966244;29;20253;-75
2022/01/26 01:01:16;;;;;;;5.82;3.75;;;16.10;77.60;;;;;;1966285;29;20567;-76
2022/01/26 01:02:14;;;;;;;3.77;2.77;;;16.00;77.60;;;;;;1973275;29;20204;-76
2022/01/26 01:03:13;;;;;;;5.63;3.50;;;16.10;77.80;;;;;;1965407;29;20249;-77
2022/01/26 01:04:12;;;;;;;4.93;3.37;;;16.00;77.50;;;;;;1958648;29;20221;-76
2022/01/26 01:05:23;;;;;;;3.97;3.20;;;16.00;77.60;;;;;;1957527;29;20176;-76
2022/01/26 01:06:28;;;;;;;4.82;3.60;;;16.10;77.70;;;;;;1959421;29;20180;-78
2022/01/26 01:07:31;;;;;;;3.80;3.03;;;16.00;77.40;;;;;;1973233;29;20195;-75
2022/01/26 01:08:30;;;;;;;5.60;3.35;;;16.00;77.50;;;;;;1973332;29;20246;-77
2022/01/26 01:09:33;;;;;;;4.93;3.50;;;16.10;77.60;;;;;;1957844;29;20173;-76
2022/01/26 01:10:32;;;;;;;5.88;3.55;;;16.10;77.70;;;;;;1958124;29;20213;-76
2022/01/26 01:11:30;;;;;;;4.37;3.17;;;16.10;77.60;;;;;;1966173;29;20240;-79
2022/01/26 01:12:29;;;;;;;3.97;3.20;;;16.00;77.70;;;;;;1966192;29;20417;-77
2022/01/26 01:13:33;;;;;;;5.90;3.25;;;16.00;77.70;;;;;;1973018;29;20202;-78
2022/01/26 01:14:36;;;;;;;5.05;3.42;;;16.10;77.80;;;;;;1973020;29;20589;-77
2022/01/26 01:15:35;;;;;;;5.07;3.33;;;16.00;77.70;;;;;;1966131;29;20168;-75
2022/01/26 01:16:34;;;;;;;3.90;3.17;;;16.00;77.70;;;;;;1966380;29;20184;-79
2022/01/26 01:17:39;;;;;;;3.60;2.90;;;16.00;77.80;;;;;;1966063;29;20183;-77
2022/01/26 01:20:02;;;;;;;4.57;3.50;;;16.00;77.70;;;;;;1966137;29;20164;-75
2022/01/26 01:22:31;;;;;;;4.15;3.10;;;16.00;77.80;;;;;;1966151;29;20295;-76
2022/01/26 01:24:05;;;;;;;5.13;2.97;;;16.00;77.90;;;;;;1966111;29;20196;-76
2022/01/26 01:27:41;;;;;;;4.38;3.47;;;16.00;77.90;;;;;;1965488;29;20219;-77
2022/01/26 01:30:21;;;;;;;3.85;3.03;;;15.90;77.70;;;;;;1966196;29;20566;-76
2022/01/26 01:31:40;;;;;;;4.95;3.33;;;15.90;77.80;;;;;;1966386;29;20251;-79
2022/01/26 01:32:51;;;;;;;4.55;3.22;;;15.90;77.80;;;;;;1966077;29;20192;-77
2022/01/26 01:33:51;;;;;;;4.05;3.00;;;15.90;77.80;;;;;;1965792;29;20279;-76
2022/01/26 01:34:50;;;;;;;5.22;3.00;;;15.90;77.70;;;;;;1966034;29;20213;-76
2022/01/26 01:35:49;;;;;;;5.40;3.37;;;16.00;77.80;;;;;;1966126;29;20196;-77
2022/01/26 01:36:51;;;;;;;4.50;3.65;;;16.00;77.70;;;;;;1966132;29;20172;-75
2022/01/26 01:37:50;;;;;;;5.43;2.85;;;16.00;77.80;;;;;;1966012;29;20542;-76
2022/01/26 01:38:48;;;;;;;4.78;3.55;;;15.90;77.80;;;;;;1966040;29;20173;-76
2022/01/26 01:39:47;;;;;;;5.87;4.10;;;15.90;77.80;;;;;;1957750;29;20539;-76
2022/01/26 01:40:50;;;;;;;5.00;3.57;;;15.90;77.80;;;;;;1957867;29;20177;-76
2022/01/26 01:41:51;;;;;;;4.60;3.45;;;16.00;77.90;;;;;;1965743;29;20540;-77
2022/01/26 01:42:49;;;;;;;4.50;3.55;;;16.00;77.80;;;;;;1966104;29;20617;-76
2022/01/26 01:43:48;;;;;;;4.47;3.40;;;15.90;77.70;;;;;;1965734;29;20169;-77
2022/01/26 01:44:46;;;;;;;5.33;2.97;;;15.90;77.90;;;;;;1965996;29;20180;-77
2022/01/26 01:45:51;;;;;;;4.30;3.70;;;15.90;77.80;;;;;;1965914;29;20559;-76
2022/01/26 01:46:50;;;;;;;7.32;3.60;;;15.90;77.80;;;;;;1965669;29;20183;-78
2022/01/26 01:47:49;;;;;;;3.85;3.28;;;15.90;77.90;;;;;;1965582;29;20192;-77
2022/01/26 01:48:47;;;;;;;4.73;3.30;;;15.90;77.70;;;;;;1965957;29;20176;-77
2022/01/26 01:49:46;;;;;;;5.73;3.20;;;15.90;77.80;;;;;;1966072;29;20687;-76
2022/01/26 01:50:48;;;;;;;4.37;3.30;;;15.90;77.70;;;;;;1966030;29;20673;-76
2022/01/26 01:52:13;;;;;;;4.20;3.25;;;15.90;77.70;;;;;;1965976;29;20165;-76
2022/01/26 01:53:06;;;;;;;5.78;3.58;;;15.90;77.70;;;;;;1965650;29;20300;-76
2022/01/26 01:54:14;;;;;;;5.00;3.60;;;15.90;77.90;;;;;;1965922;29;20201;-78
2022/01/26 01:55:15;;;;;;;4.00;3.25;;;15.90;78.00;;;;;;1965998;29;20421;-77
2022/01/26 01:56:17;;;;;;;4.68;3.67;;;15.90;77.90;;;;;;1965979;29;20181;-77
2022/01/26 01:57:21;;;;;;;4.95;3.58;;;15.90;77.90;;;;;;1966185;29;20208;-78
2022/01/26 01:58:20;;;;;;;3.83;3.33;;;15.90;77.80;;;;;;1965995;29;20585;-77
2022/01/26 01:59:19;;;;;;;5.00;3.40;;;15.90;77.80;;;;;;1966027;29;20235;-77
2022/01/26 02:00:18;;;;;;;4.05;3.25;;;15.90;77.90;;;;;;1957756;29;20551;-76
2022/01/26 02:01:16;;;;;;;5.07;3.27;;;15.90;77.90;;;;;;1957833;29;20192;-78
2022/01/26 02:02:15;;;;;;;4.40;3.23;;;15.90;77.90;;;;;;1965953;29;20212;-78
2022/01/26 02:03:14;;;;;;;6.10;3.67;;;15.90;77.80;;;;;;1965842;29;20203;-76
2022/01/26 02:04:12;;;;;;;5.50;3.40;;;15.90;77.90;;;;;;1967637;29;20195;-77
2022/01/26 02:05:11;;;;;;;4.23;3.13;;;15.90;77.80;;;;;;1968304;29;20267;-76
2022/01/26 02:06:09;;;;;;;5.10;3.23;;;15.90;77.90;;;;;;1968428;29;20603;-76
2022/01/26 02:07:10;;;;;;;7.53;3.47;;;15.90;77.80;;;;;;1968566;29;20176;-77
2022/01/26 02:08:08;;;;;;;3.67;3.20;;;15.90;77.80;;;;;;1968462;29;20172;-76
2022/01/26 02:09:07;;;;;;;3.13;2.70;;;15.90;77.70;;;;;;1968588;29;20542;-79
2022/01/26 02:10:06;;;;;;;5.33;3.27;;;15.90;77.70;;;;;;1968369;29;20198;-76
2022/01/26 02:11:06;;;;;;;4.68;3.20;;;15.90;77.80;;;;;;1968633;29;20251;-76
2022/01/26 02:12:14;;;;;;;3.88;3.08;;;15.90;77.80;;;;;;1968445;29;20184;-75
2022/01/26 02:13:28;;;;;;;5.32;3.53;;;15.90;77.70;;;;;;1968332;29;20196;-78
2022/01/26 02:14:35;;;;;;;8.00;3.92;;;15.90;78.00;;;;;;1967775;29;20180;-76
2022/01/26 02:15:48;;;;;;;5.93;3.03;;;15.80;77.80;;;;;;1967740;29;20157;-76
2022/01/26 02:17:04;;;;;;;4.28;3.45;;;15.80;77.90;;;;;;1968393;29;20640;-75
2022/01/26 02:21:52;;;;;;;4.28;2.97;;;15.80;77.80;;;;;;1968638;29;20403;-77
2022/01/26 02:52:57;;;;;;;6.35;3.55;;;15.70;78.00;;;;;;1968517;29;20595;-77
2022/01/26 02:55:20;;;;;;;5.55;3.45;;;15.70;78.10;;;;;;1968523;29;20218;-78
2022/01/26 02:57:43;;;;;;;5.30;3.47;;;15.70;77.90;;;;;;1968368;29;20179;-76
2022/01/26 02:58:58;;;;;;;5.95;3.50;;;15.80;78.10;;;;;;1968124;29;20184;-75
2022/01/26 03:02:59;;;;;;;4.40;3.30;;;15.70;78.00;;;;;;1960140;29;20161;-77
2022/01/26 03:05:37;;;;;;;4.63;3.30;;;15.70;78.00;;;;;;1959792;29;20189;-79
2022/01/26 03:06:44;;;;;;;4.03;3.28;;;15.80;78.10;;;;;;1960053;29;20185;-77
2022/01/26 03:07:50;;;;;;;4.78;3.50;;;15.70;78.00;;;;;;1954028;29;20515;-76
2022/01/26 03:08:55;;;;;;;4.85;3.95;;;15.80;78.00;;;;;;1960605;29;20236;-77
2022/01/26 03:10:02;;;;;;;4.57;3.10;;;15.80;78.00;;;;;;1975456;29;20186;-76
2022/01/26 03:11:08;;;;;;;4.55;3.40;;;15.80;77.90;;;;;;1974790;29;20157;-78
2022/01/26 03:12:08;;;;;;;4.90;3.70;;;15.80;78.00;;;;;;1968179;29;20157;-75
2022/01/26 03:13:12;;;;;;;4.70;3.67;;;15.80;77.80;;;;;;1968124;29;20244;-77
2022/01/26 03:15:34;;;;;;;4.32;3.00;;;15.80;78.00;;;;;;1967312;29;20160;-76
2022/01/26 03:16:39;;;;;;;6.13;3.40;;;15.80;77.90;;;;;;1966785;29;20161;-77
2022/01/26 03:19:18;;;;;;;3.42;2.90;;;15.80;77.90;;;;;;1967859;29;20539;-77
2022/01/26 03:20:16;;;;;;;5.45;3.30;;;15.70;77.80;;;;;;1975809;29;20176;-78
2022/01/26 03:21:17;;;;;;;5.03;3.70;;;15.70;77.80;;;;;;1976663;29;20631;-77
2022/01/26 03:28:14;;;;;;;4.45;3.45;;;15.70;77.90;;;;;;1961565;29;20879;-74
2022/01/26 03:29:09;;;;;;;4.50;3.53;;;15.70;77.80;;;;;;1973971;29;20524;-77
2022/01/26 03:34:09;;;;;;;4.60;3.40;;;15.70;78.00;;;;;;1966847;29;20232;-76
2022/01/26 03:35:15;;;;;;;5.25;3.85;;;15.70;77.90;;;;;;1966935;29;20169;-76
2022/01/26 03:36:14;;;;;;;5.25;3.97;;;15.70;77.90;;;;;;1967023;29;20168;-76
2022/01/26 03:37:13;;;;;;;4.68;3.50;;;15.70;78.00;;;;;;1966876;29;20177;-76
2022/01/26 03:38:22;;;;;;;4.57;3.00;;;15.70;78.00;;;;;;1966951;29;20624;-76
2022/01/26 03:39:22;;;;;;;7.03;4.50;;;15.70;78.00;;;;;;1966992;29;20165;-76
2022/01/26 03:40:30;;;;;;;5.63;4.57;;;15.70;78.00;;;;;;1966688;29;20252;-77
2022/01/26 03:42:30;;;;;;;6.43;3.97;;;15.70;77.90;;;;;;1973228;29;20214;-77
2022/01/26 03:43:29;;;;;;;3.23;2.90;;;15.60;77.80;;;;;;1966345;29;20200;-77
2022/01/26 03:44:27;;;;;;;4.00;3.17;;;15.60;77.90;;;;;;1966879;29;20255;-76
2022/01/26 03:45:26;;;;;;;5.07;3.40;;;15.70;78.00;;;;;;1966873;29;20173;-75
2022/01/26 03:46:25;;;;;;;3.73;3.20;;;15.70;78.00;;;;;;1967150;29;20651;-76
2022/01/26 03:47:24;;;;;;;4.97;3.50;;;15.70;77.90;;;;;;1967197;29;20777;-76
2022/01/26 03:48:22;;;;;;;4.80;3.63;;;15.70;77.80;;;;;;1966920;29;20173;-76
2022/01/26 03:49:22;;;;;;;3.47;2.97;;;15.70;77.90;;;;;;1966718;29;20173;-77
2022/01/26 03:50:24;;;;;;;5.33;4.07;;;15.70;77.80;;;;;;1967054;29;20184;-76
2022/01/26 03:51:23;;;;;;;4.97;3.70;;;15.60;77.80;;;;;;1966766;29;20176;-79
2022/01/26 03:52:22;;;;;;;4.50;3.03;;;15.70;77.80;;;;;;1966984;29;20189;-76
2022/01/26 03:53:20;;;;;;;3.80;3.17;;;15.70;78.00;;;;;;1966620;29;20783;-76
2022/01/26 03:54:20;;;;;;;5.40;3.67;;;15.70;77.90;;;;;;1973382;29;20179;-78
2022/01/26 03:55:19;;;;;;;4.05;3.05;;;15.60;77.90;;;;;;1973780;29;20239;-76
2022/01/26 03:56:17;;;;;;;4.77;3.13;;;15.70;77.90;;;;;;1967039;29;20196;-76
2022/01/26 03:57:16;;;;;;;7.33;3.60;;;15.70;77.80;;;;;;1966748;29;20187;-75
2022/01/26 03:58:14;;;;;;;4.60;3.23;;;15.70;77.90;;;;;;1973647;29;20187;-77
2022/01/26 03:59:13;;;;;;;5.70;3.30;;;15.70;77.90;;;;;;1973904;29;20267;-76
2022/01/26 04:00:13;;;;;;;4.90;3.50;;;15.70;77.80;;;;;;1967115;29;20235;-77
2022/01/26 04:01:12;;;;;;;5.22;3.55;;;15.60;77.80;;;;;;1973558;29;20190;-76
2022/01/26 04:02:10;;;;;;;5.25;3.40;;;15.70;78.00;;;;;;1973739;29;20565;-76
2022/01/26 04:03:09;;;;;;;5.37;4.00;;;15.60;77.90;;;;;;1967440;29;20215;-76
2022/01/26 04:04:08;;;;;;;4.20;3.20;;;15.60;77.90;;;;;;1966643;29;20215;-76
2022/01/26 04:05:10;;;;;;;5.67;3.73;;;15.60;77.70;;;;;;1966656;29;20232;-77
2022/01/26 04:06:09;;;;;;;4.18;3.25;;;15.60;77.80;;;;;;1965953;29;20587;-77
2022/01/26 04:07:08;;;;;;;5.03;3.10;;;15.60;77.80;;;;;;1966062;29;20228;-76
2022/01/26 04:08:14;;;;;;;5.47;3.43;;;15.70;77.80;;;;;;1966780;29;20177;-78
2022/01/26 04:09:15;;;;;;;5.88;3.58;;;15.70;77.80;;;;;;1966723;29;20161;-77
2022/01/26 04:10:35;;;;;;;6.30;3.97;;;15.60;77.70;;;;;;1966776;29;20254;-76
2022/01/26 04:12:37;;;;;;;4.97;3.97;;;15.60;77.80;;;;;;1966676;29;20177;-78
2022/01/26 04:13:36;;;;;;;4.80;3.45;;;15.60;77.80;;;;;;1973426;29;20203;-77
2022/01/26 04:14:35;;;;;;;4.47;3.23;;;15.60;77.70;;;;;;1973591;29;20220;-78
2022/01/26 04:15:35;;;;;;;5.05;3.50;;;15.60;77.90;;;;;;1966831;29;20232;-78
2022/01/26 04:16:35;;;;;;;7.38;3.97;;;15.60;77.70;;;;;;1966698;29;20320;-78
2022/01/26 04:17:34;;;;;;;4.60;3.50;;;15.60;77.70;;;;;;1967019;29;20177;-76
2022/01/26 04:18:36;;;;;;;6.30;3.90;;;15.70;77.90;;;;;;1958415;29;20185;-77
2022/01/26 04:19:38;;;;;;;4.63;3.30;;;15.70;77.70;;;;;;1958484;29;20191;-78
2022/01/26 04:20:41;;;;;;;4.90;3.67;;;15.60;77.70;;;;;;1966587;29;20636;-78
2022/01/26 04:23:15;;;;;;;5.72;3.60;;;15.60;77.70;;;;;;1971876;29;20172;-77
2022/01/26 04:24:20;;;;;;;6.45;4.05;;;15.60;77.70;;;;;;1965874;29;20201;-77
2022/01/26 04:25:23;;;;;;;5.30;4.05;;;15.60;77.90;;;;;;1966176;29;20157;-77
2022/01/26 04:26:29;;;;;;;5.30;3.72;;;15.60;77.90;;;;;;1966603;29;20173;-77
2022/01/26 04:28:38;;;;;;;5.25;3.42;;;15.60;77.90;;;;;;1966548;29;20179;-76
2022/01/26 04:29:36;;;;;;;4.15;3.30;;;15.60;77.90;;;;;;1966408;29;20211;-77
2022/01/26 04:30:35;;;;;;;5.43;3.70;;;15.60;77.90;;;;;;1973437;29;20262;-78
2022/01/26 04:31:33;;;;;;;4.87;3.70;;;15.60;77.80;;;;;;1973605;29;20219;-75
2022/01/26 04:32:32;;;;;;;4.50;3.00;;;15.60;77.70;;;;;;1967084;29;20212;-75
2022/01/26 04:33:33;;;;;;;4.47;3.10;;;15.60;77.70;;;;;;1965990;29;20647;-78
2022/01/26 04:34:33;;;;;;;4.30;3.47;;;15.60;78.00;;;;;;1958318;29;20222;-76
2022/01/26 04:35:33;;;;;;;4.57;3.38;;;15.60;78.00;;;;;;1958336;29;20642;-77
2022/01/26 04:36:57;;;;;;;3.80;3.40;;;15.60;77.80;;;;;;1966224;29;20527;-79
2022/01/26 04:39:17;;;;;;;4.65;3.50;;;15.60;77.70;;;;;;1966441;29;20263;-79
2022/01/26 04:40:17;;;;;;;4.80;3.50;;;15.50;77.80;;;;;;1966273;29;20620;-77
2022/01/26 04:42:26;;;;;;;4.35;2.92;;;15.50;77.80;;;;;;1966463;29;20212;-76
2022/01/26 04:43:28;;;;;;;4.63;3.25;;;15.50;77.80;;;;;;1966461;29;20244;-77
2022/01/26 04:44:33;;;;;;;5.85;3.78;;;15.50;77.70;;;;;;1966299;29;20200;-76
2022/01/26 04:45:32;;;;;;;3.40;2.88;;;15.50;77.80;;;;;;1966400;29;20522;-77
2022/01/26 04:46:30;;;;;;;5.53;3.60;;;15.50;77.90;;;;;;1973371;29;20184;-77
2022/01/26 04:47:29;;;;;;;4.90;3.70;;;15.50;77.80;;;;;;1973542;29;20661;-78
2022/01/26 04:48:28;;;;;;;5.55;4.03;;;15.50;77.80;;;;;;1966906;29;20176;-77
2022/01/26 04:49:26;;;;;;;4.30;3.37;;;15.50;77.90;;;;;;1966510;29;20666;-78
2022/01/26 04:50:25;;;;;;;4.33;3.33;;;15.50;78.00;;;;;;1966433;29;20173;-77
2022/01/26 04:51:24;;;;;;;4.90;3.20;;;15.50;78.00;;;;;;1966526;29;20208;-76
2022/01/26 04:52:23;;;;;;;4.20;3.67;;;15.50;77.80;;;;;;1966736;29;20467;-76
2022/01/26 04:53:21;;;;;;;4.50;2.93;;;15.50;77.80;;;;;;1965702;29;20204;-76
2022/01/26 04:54:20;;;;;;;3.73;3.10;;;15.50;77.80;;;;;;1957905;29;20341;-77
2022/01/26 04:55:19;;;;;;;5.20;3.93;;;15.50;77.80;;;;;;1958381;29;20178;-79
2022/01/26 04:56:17;;;;;;;4.77;3.37;;;15.50;77.80;;;;;;1965810;29;20644;-77
2022/01/26 04:57:16;;;;;;;4.93;3.50;;;15.50;77.90;;;;;;1966461;29;20179;-77
2022/01/26 04:58:15;;;;;;;3.90;3.07;;;15.50;77.80;;;;;;1966201;29;20428;-77
2022/01/26 04:59:13;;;;;;;4.50;3.40;;;15.50;77.90;;;;;;1966267;29;20194;-77
2022/01/26 05:00:12;;;;;;;3.77;3.17;;;15.50;77.80;;;;;;1966470;29;20181;-76
2022/01/26 05:01:11;;;;;;;5.00;3.30;;;15.50;77.80;;;;;;1966522;29;20181;-76
2022/01/26 05:02:10;;;;;;;4.50;3.13;;;15.50;77.80;;;;;;1966159;29;20421;-77
2022/01/26 05:03:08;;;;;;;4.83;3.70;;;15.50;77.80;;;;;;1973674;29;20209;-78
2022/01/26 05:04:07;;;;;;;4.70;3.00;;;15.50;77.90;;;;;;1973521;29;20175;-76
2022/01/26 05:05:05;;;;;;;5.30;3.23;;;15.50;77.80;;;;;;1966709;29;20275;-76
2022/01/26 05:06:04;;;;;;;4.97;3.30;;;15.40;77.50;;;;;;1966395;29;20192;-78
2022/01/26 05:07:03;;;;;;;4.27;3.37;;;15.50;77.70;;;;;;1966196;29;20183;-77
2022/01/26 05:08:02;;;;;;;4.80;3.80;;;15.40;77.80;;;;;;1973145;29;20168;-76
2022/01/26 05:09:00;;;;;;;4.57;3.37;;;15.40;77.70;;;;;;1973279;29;20240;-77
2022/01/26 05:10:00;;;;;;;6.77;3.70;;;15.40;77.80;;;;;;1966467;29;20220;-76
2022/01/26 05:11:00;;;;;;;4.88;3.38;;;15.40;77.60;;;;;;1966260;29;20664;-77
2022/01/26 05:12:00;;;;;;;4.22;3.58;;;15.30;77.70;;;;;;1966035;29;20203;-77
2022/01/26 05:12:59;;;;;;;5.72;4.00;;;15.40;78.00;;;;;;1965389;29;20204;-76
2022/01/26 05:13:58;;;;;;;4.80;3.57;;;15.40;77.90;;;;;;1973289;29;20214;-77
2022/01/26 05:14:57;;;;;;;5.22;3.78;;;15.40;77.80;;;;;;1973113;29;20189;-77
2022/01/26 05:15:55;;;;;;;3.30;2.80;;;15.40;77.80;;;;;;1966627;29;20197;-76
2022/01/26 05:16:54;;;;;;;4.07;3.10;;;15.40;77.80;;;;;;1966227;29;20180;-78
2022/01/26 05:17:53;;;;;;;4.07;3.00;;;15.40;78.00;;;;;;1966358;29;20188;-77
2022/01/26 05:18:53;;;;;;;4.77;3.40;;;15.40;78.00;;;;;;1966467;29;20508;-77
2022/01/26 05:19:56;;;;;;;5.68;3.10;;;15.40;77.90;;;;;;1966286;29;20165;-77
2022/01/26 05:20:56;;;;;;;5.10;3.42;;;15.40;77.70;;;;;;1966177;29;20252;-77
2022/01/26 05:21:55;;;;;;;3.88;3.45;;;15.40;77.70;;;;;;1965510;29;20181;-76
2022/01/26 05:22:53;;;;;;;4.43;3.40;;;15.40;77.80;;;;;;1965624;29;20255;-75
2022/01/26 05:23:52;;;;;;;4.80;3.63;;;15.30;77.50;;;;;;1966086;29;20658;-76
2022/01/26 05:24:52;;;;;;;4.88;3.60;;;15.40;77.80;;;;;;1966050;29;20217;-76
2022/01/26 05:25:53;;;;;;;4.22;3.20;;;15.30;77.80;;;;;;1966016;29;20604;-76
2022/01/26 05:26:51;;;;;;;3.95;3.40;;;15.40;78.10;;;;;;1966005;29;20232;-76
2022/01/26 05:27:50;;;;;;;4.80;3.53;;;15.40;77.90;;;;;;1966052;29;20180;-76
2022/01/26 05:28:49;;;;;;;4.20;3.73;;;15.30;77.80;;;;;;1966118;29;20260;-76
2022/01/26 05:29:47;;;;;;;5.13;3.90;;;15.40;77.90;;;;;;1966086;29;20180;-78
2022/01/26 05:30:46;;;;;;;3.73;3.17;;;15.30;77.80;;;;;;1966109;29;20525;-76
2022/01/26 05:31:44;;;;;;;4.70;3.90;;;15.30;77.90;;;;;;1966066;29;20172;-76
2022/01/26 05:32:43;;;;;;;6.17;3.57;;;15.40;77.90;;;;;;1966166;29;20177;-76
2022/01/26 05:33:42;;;;;;;5.47;3.10;;;15.30;77.70;;;;;;1965785;29;20683;-77
2022/01/26 05:34:40;;;;;;;5.82;3.95;;;15.40;77.70;;;;;;1966199;29;20183;-76
2022/01/26 05:35:42;;;;;;;3.90;3.10;;;15.40;77.90;;;;;;1966040;29;20176;-78
2022/01/26 05:36:40;;;;;;;4.97;3.25;;;15.40;77.90;;;;;;1972987;29;20250;-75
2022/01/26 05:37:39;;;;;;;4.80;3.30;;;15.30;77.70;;;;;;1973118;29;20175;-75
2022/01/26 05:38:38;;;;;;;4.10;3.03;;;15.30;77.70;;;;;;1966063;29;20195;-77
2022/01/26 05:39:38;;;;;;;5.78;3.92;;;15.40;77.90;;;;;;1965943;29;20324;-78
2022/01/26 05:40:37;;;;;;;5.57;3.55;;;15.40;77.90;;;;;;1966108;29;20187;-77
2022/01/26 05:41:38;;;;;;;6.80;3.50;;;15.40;77.80;;;;;;1965934;29;20236;-76
2022/01/26 05:42:37;;;;;;;4.65;3.47;;;15.30;77.80;;;;;;1973020;29;20236;-76
2022/01/26 05:43:35;;;;;;;6.13;3.70;;;15.30;77.80;;;;;;1973017;29;20196;-76
2022/01/26 05:44:35;;;;;;;3.73;2.90;;;15.30;78.00;;;;;;1966362;29;20742;-76
2022/01/26 05:45:37;;;;;;;3.60;2.78;;;15.30;78.00;;;;;;1966029;29;20631;-77
2022/01/26 05:46:46;;;;;;;6.53;3.83;;;15.30;77.90;;;;;;1965965;29;20183;-75
2022/01/26 05:47:44;;;;;;;4.75;2.95;;;15.30;78.00;;;;;;1966267;29;20730;-76
2022/01/26 05:48:45;;;;;;;4.13;3.40;;;15.30;77.80;;;;;;1965815;29;20306;-76
2022/01/26 05:49:44;;;;;;;4.80;3.05;;;15.30;77.90;;;;;;1965912;29;20260;-75
2022/01/26 05:50:53;;;;;;;7.00;3.67;;;15.30;77.90;;;;;;1966026;29;20188;-77
2022/01/26 05:51:53;;;;;;;5.30;3.40;;;15.30;77.90;;;;;;1966130;29;20197;-78
2022/01/26 05:52:51;;;;;;;4.28;3.35;;;15.30;78.10;;;;;;1965951;29;20559;-76
2022/01/26 05:53:50;;;;;;;3.90;2.70;;;15.40;78.00;;;;;;1965925;29;20188;-76
2022/01/26 05:54:49;;;;;;;4.27;3.37;;;15.40;78.00;;;;;;1965846;29;20541;-77
2022/01/26 05:55:53;;;;;;;6.60;3.13;;;15.40;77.90;;;;;;1965754;29;20200;-76
2022/01/26 05:56:51;;;;;;;4.47;2.80;;;15.40;77.80;;;;;;1965910;29;20172;-77
2022/01/26 05:57:50;;;;;;;4.63;3.60;;;15.40;77.90;;;;;;1965323;29;20512;-76
2022/01/26 05:58:49;;;;;;;4.07;3.10;;;15.40;77.90;;;;;;1972795;29;20228;-78
2022/01/26 05:59:47;;;;;;;4.70;3.20;;;15.40;77.90;;;;;;1972805;29;20182;-76
2022/01/26 06:00:46;;;;;;;5.30;3.43;;;15.40;77.90;;;;;;1965652;29;20259;-77
2022/01/26 06:01:45;;;;;;;4.00;3.10;;;15.40;77.90;;;;;;1965267;29;20177;-79
2022/01/26 06:02:44;;;;;;;4.60;3.33;;;15.40;77.90;;;;;;1966201;29;20204;-77
2022/01/26 06:03:43;;;;;;;6.18;3.72;;;15.40;77.80;;;;;;1965901;29;20561;-77
2022/01/26 06:04:41;;;;;;;4.80;3.33;;;15.40;77.70;;;;;;1966094;29;20260;-78
2022/01/26 06:05:40;;;;;;;3.17;2.87;;;15.40;77.60;;;;;;1965872;29;20208;-76
2022/01/26 06:06:39;;;;;;;5.20;3.60;;;15.40;77.70;;;;;;1965928;29;20506;-79
2022/01/26 06:07:37;;;;;;;3.73;3.10;;;15.40;77.80;;;;;;1966080;29;20180;-77
2022/01/26 06:08:36;;;;;;;4.80;3.60;;;15.40;77.80;;;;;;1965892;29;20522;-77
2022/01/26 06:09:34;;;;;;;5.27;3.37;;;15.40;77.90;;;;;;1966766;29;20628;-77
2022/01/26 06:10:33;;;;;;;4.60;3.63;;;15.40;77.80;;;;;;1966730;29;20245;-77
2022/01/26 06:11:32;;;;;;;6.57;3.80;;;15.40;77.80;;;;;;1966797;29;20185;-77
2022/01/26 06:12:39;;;;;;;6.63;3.53;;;15.40;77.80;;;;;;1973955;29;20413;-77
2022/01/26 06:13:38;;;;;;;10.75;3.05;;;15.40;77.70;;;;;;1969233;29;20327;-77
2022/01/26 06:14:36;;;;;;;12.53;3.23;;;15.40;78.40;;;;;;1969917;29;20707;-76
2022/01/26 06:15:37;;;;;;;9.27;3.37;;;15.40;78.50;;;;;;1973956;29;20189;-76
2022/01/26 06:16:37;;;;;;;5.13;3.50;;;15.40;78.50;;;;;;1966727;29;20207;-76
2022/01/26 06:17:35;;;;;;;11.35;3.70;;;15.30;78.70;;;;;;1963534;29;20192;-74
2022/01/26 06:18:34;;;;;;;6.23;3.80;;;15.40;78.90;;;;;;1975294;29;20172;-74
2022/01/26 06:19:33;;;;;;;5.60;3.80;;;15.40;78.90;;;;;;1973824;29;20207;-74
2022/01/26 06:20:33;;;;;;;5.10;3.30;;;15.40;79.00;;;;;;1982907;28;20164;-75
2022/01/26 06:21:32;;;;;;;9.13;3.55;;;15.40;79.00;;;;;;1982709;29;20175;-74
2022/01/26 06:22:31;;;;;;;7.37;3.50;;;15.30;79.00;;;;;;1975241;29;20220;-76
2022/01/26 06:23:29;;;;;;;5.30;3.63;;;15.30;78.90;;;;;;1972412;29;20235;-76
2022/01/26 06:24:28;;;;;;;6.83;3.87;;;15.40;79.10;;;;;;1972487;29;20491;-75
2022/01/26 06:25:28;;;;;;;10.13;4.17;;;15.30;79.00;;;;;;1972913;29;20200;-75
2022/01/26 06:26:26;;;;;;;6.22;3.30;;;15.40;79.00;;;;;;1968775;29;20745;-79
2022/01/26 06:27:25;;;;;;;6.63;2.77;;;15.40;79.00;;;;;;1973135;29;20191;-77
2022/01/26 06:28:27;;;;;;;7.30;3.47;;;15.40;79.10;;;;;;1973349;29;20195;-77
2022/01/26 06:29:26;;;;;;;5.78;2.95;;;15.40;79.00;;;;;;1964301;29;20205;-76
2022/01/26 06:30:28;;;;;;;4.70;3.37;;;15.40;79.00;;;;;;1960125;29;20185;-78
2022/01/26 06:31:41;;;;;;;4.15;3.10;;;15.40;79.00;;;;;;1962613;29;20207;-77
2022/01/26 06:32:40;;;;;;;8.07;3.15;;;15.40;79.00;;;;;;1963480;29;20264;-79
2022/01/26 06:33:40;;;;;;;5.95;4.55;;;15.40;79.10;;;;;;1965042;29;20172;-76
2022/01/26 06:34:40;;;;;;;7.97;3.33;;;15.20;78.90;;;;;;1958793;29;20189;-76
2022/01/26 06:35:38;;;;;;;6.28;3.38;;;15.30;79.00;;;;;;1958462;29;20177;-78
2022/01/26 06:36:43;;;;;;;5.10;3.20;;;15.30;78.90;;;;;;1958325;29;20173;-77
2022/01/26 06:37:43;;;;;;;5.32;3.60;;;15.40;79.00;;;;;;1972812;29;20516;-75
2022/01/26 06:38:43;;;;;;;5.72;3.75;;;15.30;79.10;;;;;;1972938;29;20187;-78
2022/01/26 06:39:42;;;;;;;8.57;3.92;;;15.30;79.10;;;;;;1958472;29;20647;-76
2022/01/26 06:40:40;;;;;;;8.35;4.03;;;15.40;79.20;;;;;;1958495;29;20566;-80
2022/01/26 06:41:48;;;;;;;7.30;3.60;;;15.30;79.20;;;;;;1958583;29;20202;-78